Time;durP1;ratioP1;P1;durP2;ratioP2;P2;SDS_P1;SDS_P2;PMS_P1;PMS_P2;Temp;Humidity;BMP_temperature;BMP_pressure;BME280_temperature;BME280_humidity;BME280_pressure;Samples;Min_cycle;Max_cycle;Signal;HPM_P1;HPM_P2
2021/07/16 00:02:22;;;;;;;9.90;5.45;;;17.20;99.90;;;;;;5041460;28;20483;-78
2021/07/16 00:04:49;;;;;;;14.82;5.82;;;17.10;99.90;;;;;;5023761;28;20045;-78
2021/07/16 00:07:15;;;;;;;9.48;4.75;;;17.10;99.90;;;;;;5024016;28;20040;-78
2021/07/16 00:09:42;;;;;;;9.60;5.38;;;17.10;99.90;;;;;;5023938;28;20234;-78
2021/07/16 00:12:09;;;;;;;10.68;5.35;;;17.10;99.90;;;;;;5037714;28;20041;-78
2021/07/16 00:14:36;;;;;;;10.75;4.78;;;17.10;99.90;;;;;;5042573;28;20048;-78
2021/07/16 00:17:03;;;;;;;10.35;5.22;;;17.00;99.90;;;;;;5025582;28;20045;-78
2021/07/16 00:19:29;;;;;;;9.82;5.57;;;17.00;99.90;;;;;;5026281;28;20056;-78
2021/07/16 00:21:56;;;;;;;14.25;5.65;;;17.00;99.90;;;;;;5041563;28;20487;-78
2021/07/16 00:24:22;;;;;;;14.02;5.60;;;17.00;99.90;;;;;;5024042;28;20041;-78
2021/07/16 00:26:48;;;;;;;11.70;5.95;;;17.00;99.90;;;;;;5009808;28;20033;-78
2021/07/16 00:29:15;;;;;;;9.60;4.93;;;17.00;99.90;;;;;;5025098;28;20045;-78
2021/07/16 00:31:41;;;;;;;9.52;4.55;;;17.00;99.90;;;;;;5018676;28;20039;-78
2021/07/16 00:34:08;;;;;;;11.23;4.32;;;17.00;99.90;;;;;;5020954;28;20044;-78
2021/07/16 00:36:34;;;;;;;10.35;4.70;;;17.00;99.90;;;;;;5043801;28;20049;-78
2021/07/16 00:39:01;;;;;;;7.00;3.92;;;17.00;99.90;;;;;;5009311;28;20059;-78
2021/07/16 00:41:27;;;;;;;9.25;4.40;;;16.90;99.90;;;;;;5041215;28;20514;-78
2021/07/16 00:43:59;;;;;;;7.45;4.82;;;17.00;99.90;;;;;;5040270;28;20052;-78
2021/07/16 00:46:25;;;;;;;12.77;5.00;;;17.00;99.90;;;;;;5025677;28;20048;-78
2021/07/16 00:48:56;;;;;;;10.48;4.93;;;17.00;99.90;;;;;;5042606;28;20031;-78
2021/07/16 00:51:22;;;;;;;12.43;4.97;;;16.90;99.90;;;;;;5041256;28;20045;-78
2021/07/16 00:53:49;;;;;;;8.90;4.53;;;16.90;99.90;;;;;;5041627;28;20506;-78
2021/07/16 00:56:15;;;;;;;5.70;4.03;;;16.90;99.90;;;;;;5016081;28;20420;-78
2021/07/16 00:58:42;;;;;;;10.88;5.45;;;16.90;99.90;;;;;;5025932;28;20061;-78
2021/07/16 01:01:08;;;;;;;9.63;4.97;;;16.90;99.90;;;;;;5041285;28;20052;-78
2021/07/16 01:03:36;;;;;;;10.38;4.72;;;16.90;99.90;;;;;;5041254;28;20044;-78
2021/07/16 01:06:04;;;;;;;8.18;4.70;;;17.00;99.90;;;;;;5043493;28;20044;-78
2021/07/16 01:08:31;;;;;;;12.35;5.53;;;17.00;99.90;;;;;;5008097;28;20407;-78
2021/07/16 01:10:59;;;;;;;15.82;5.50;;;17.00;99.90;;;;;;4989787;28;20093;-78
2021/07/16 01:13:26;;;;;;;10.20;5.68;;;17.00;99.90;;;;;;5041840;28;20412;-78
2021/07/16 01:15:55;;;;;;;7.97;4.63;;;17.00;99.90;;;;;;5042578;28;20041;-78
2021/07/16 01:18:22;;;;;;;10.45;5.15;;;17.00;99.90;;;;;;5024207;28;20431;-79
2021/07/16 01:20:49;;;;;;;10.93;5.55;;;17.00;99.90;;;;;;5042969;28;20072;-79
2021/07/16 01:23:24;;;;;;;11.82;5.40;;;16.90;99.90;;;;;;5024789;28;20681;-78
2021/07/16 01:25:56;;;;;;;11.63;5.07;;;17.00;99.90;;;;;;5042307;28;20052;-79
2021/07/16 01:28:22;;;;;;;15.05;6.13;;;17.00;99.90;;;;;;5047990;28;20344;-79
2021/07/16 01:30:51;;;;;;;10.60;5.72;;;16.90;99.90;;;;;;5048062;28;20044;-79
2021/07/16 01:33:19;;;;;;;15.02;7.40;;;16.90;99.90;;;;;;5044707;28;20037;-79
2021/07/16 01:35:46;;;;;;;12.15;5.95;;;16.90;99.90;;;;;;5047653;28;20059;-79
2021/07/16 01:38:13;;;;;;;16.77;6.78;;;16.90;99.90;;;;;;5048394;28;20739;-79
2021/07/16 01:40:39;;;;;;;15.20;6.80;;;16.90;99.90;;;;;;5045432;28;20057;-79
2021/07/16 01:43:08;;;;;;;19.75;7.30;;;16.90;99.90;;;;;;5044641;28;20044;-79
2021/07/16 01:45:38;;;;;;;12.90;6.45;;;16.80;99.90;;;;;;5030247;28;20060;-79
2021/07/16 01:48:07;;;;;;;13.95;6.03;;;16.80;99.90;;;;;;5046074;28;20032;-79
2021/07/16 01:50:35;;;;;;;13.32;5.72;;;16.80;99.90;;;;;;5045702;28;20029;-79
2021/07/16 01:53:04;;;;;;;11.45;6.00;;;16.80;99.90;;;;;;5046048;28;20368;-79
2021/07/16 01:55:32;;;;;;;15.18;7.05;;;16.80;99.90;;;;;;5046424;28;20041;-79
2021/07/16 01:58:00;;;;;;;13.98;5.95;;;16.80;99.90;;;;;;5029866;28;20037;-80
2021/07/16 02:00:33;;;;;;;15.65;6.10;;;16.80;99.90;;;;;;5044479;28;20049;-79
2021/07/16 02:03:02;;;;;;;14.02;5.80;;;16.70;99.90;;;;;;5042762;28;20037;-79
2021/07/16 02:05:29;;;;;;;19.70;6.38;;;16.70;99.90;;;;;;5047384;28;20033;-79
2021/07/16 02:08:05;;;;;;;11.27;6.03;;;16.70;99.90;;;;;;5045683;28;20067;-79
2021/07/16 02:10:32;;;;;;;14.18;6.22;;;16.70;99.90;;;;;;5047637;28;20032;-79
2021/07/16 02:12:59;;;;;;;13.20;6.00;;;16.70;99.90;;;;;;5026940;28;20048;-79
2021/07/16 02:15:32;;;;;;;15.55;6.28;;;16.70;99.90;;;;;;5029886;28;20056;-79
2021/07/16 02:17:59;;;;;;;;;;;16.60;99.90;;;;;;5047401;28;20456;-79
2021/07/16 02:20:37;;;;;;;17.42;6.10;;;16.60;99.90;;;;;;5003900;28;19931;-79
2021/07/16 02:23:07;;;;;;;15.00;6.22;;;16.60;99.90;;;;;;5044566;28;20029;-79
2021/07/16 02:25:34;;;;;;;12.18;5.35;;;16.60;99.90;;;;;;5028866;28;20037;-79
2021/07/16 02:28:05;;;;;;;12.68;5.68;;;16.60;99.90;;;;;;5044084;28;20048;-79
2021/07/16 02:30:32;;;;;;;13.10;6.10;;;16.60;99.90;;;;;;5046520;28;20040;-79
2021/07/16 02:33:00;;;;;;;16.38;6.53;;;16.60;99.90;;;;;;5045523;28;20780;-79
2021/07/16 02:35:29;;;;;;;16.67;6.63;;;16.60;99.90;;;;;;5047161;28;20045;-79
2021/07/16 02:37:56;;;;;;;14.30;5.72;;;16.60;99.90;;;;;;5028246;28;20424;-80
2021/07/16 02:40:23;;;;;;;10.75;5.72;;;16.60;99.90;;;;;;5013701;28;20052;-80
2021/07/16 02:42:49;;;;;;;13.77;5.57;;;16.60;99.90;;;;;;5046050;28;20087;-79
2021/07/16 02:45:18;;;;;;;16.00;6.63;;;16.60;99.90;;;;;;5027941;28;20432;-79
2021/07/16 02:47:45;;;;;;;16.45;5.80;;;16.60;99.90;;;;;;5044736;28;20029;-79
2021/07/16 02:50:14;;;;;;;14.00;5.57;;;16.60;99.90;;;;;;5010091;28;20041;-79
2021/07/16 02:52:41;;;;;;;17.95;6.07;;;16.60;99.90;;;;;;5042194;28;20043;-80
2021/07/16 02:55:09;;;;;;;15.45;6.30;;;16.50;99.90;;;;;;5026132;28;20045;-79
2021/07/16 02:57:35;;;;;;;14.25;5.70;;;16.50;99.90;;;;;;5027043;28;20052;-79
2021/07/16 03:00:05;;;;;;;16.00;5.63;;;16.50;99.90;;;;;;5045599;28;20052;-79
2021/07/16 03:02:41;;;;;;;15.45;5.30;;;16.50;99.90;;;;;;5042299;28;20033;-80
2021/07/16 03:05:15;;;;;;;14.63;5.65;;;16.40;99.90;;;;;;5045274;28;20040;-79
2021/07/16 03:07:42;;;;;;;14.15;5.45;;;16.40;99.90;;;;;;5028512;28;20051;-79
2021/07/16 03:10:11;;;;;;;15.13;5.35;;;16.40;99.90;;;;;;5044248;28;20677;-79
2021/07/16 03:12:38;;;;;;;20.48;6.57;;;16.40;99.90;;;;;;5041079;28;20048;-79
2021/07/16 03:15:09;;;;;;;15.50;5.30;;;16.40;99.90;;;;;;5045460;28;20099;-79
2021/07/16 03:17:37;;;;;;;13.02;4.82;;;16.40;99.90;;;;;;5044018;28;20504;-79
2021/07/16 03:20:07;;;;;;;13.70;4.38;;;16.30;99.90;;;;;;5044471;28;20364;-80
2021/07/16 03:22:33;;;;;;;17.52;5.32;;;16.30;99.90;;;;;;5027471;28;20040;-80
2021/07/16 03:25:00;;;;;;;11.60;4.10;;;16.30;99.90;;;;;;5032054;28;20041;-80
2021/07/16 03:27:26;;;;;;;20.40;5.72;;;16.30;99.90;;;;;;5028113;28;20056;-79
2021/07/16 03:29:52;;;;;;;14.23;4.50;;;16.30;99.90;;;;;;5044524;28;20065;-79
2021/07/16 03:32:19;;;;;;;14.07;5.13;;;16.30;99.90;;;;;;5040955;28;20037;-80
2021/07/16 03:34:45;;;;;;;15.60;4.40;;;16.30;99.90;;;;;;5025879;28;20086;-80
2021/07/16 03:37:11;;;;;;;20.17;5.60;;;16.20;99.90;;;;;;5042476;28;20546;-79
2021/07/16 03:39:38;;;;;;;16.67;4.43;;;16.30;99.90;;;;;;5045780;28;20480;-79
2021/07/16 03:42:05;;;;;;;13.18;4.60;;;16.30;99.90;;;;;;5040782;28;20049;-79
2021/07/16 03:44:31;;;;;;;12.63;4.32;;;16.30;99.90;;;;;;5043456;28;20389;-79
2021/07/16 03:46:59;;;;;;;19.05;5.25;;;16.30;99.90;;;;;;5045509;28;20029;-79
2021/07/16 03:49:28;;;;;;;18.42;4.45;;;16.30;99.90;;;;;;5027346;28;20032;-79
2021/07/16 03:51:56;;;;;;;17.45;5.75;;;16.30;99.90;;;;;;5043223;28;20024;-79
2021/07/16 03:54:22;;;;;;;16.33;4.40;;;16.30;99.90;;;;;;5010778;28;20488;-79
2021/07/16 03:56:49;;;;;;;19.77;5.05;;;16.30;99.90;;;;;;5043159;28;20463;-79
2021/07/16 03:59:15;;;;;;;14.90;4.63;;;16.30;99.90;;;;;;5044556;28;20071;-79
2021/07/16 04:01:42;;;;;;;11.88;4.20;;;16.30;99.90;;;;;;5044496;28;20033;-79
2021/07/16 04:04:08;;;;;;;14.15;4.32;;;16.30;99.90;;;;;;5026139;28;20048;-79
2021/07/16 04:06:35;;;;;;;20.67;5.18;;;16.30;99.90;;;;;;5044284;28;20037;-79
2021/07/16 04:09:21;;;;;;;17.70;5.25;;;16.30;99.90;;;;;;5044403;28;20048;-79
2021/07/16 04:11:47;;;;;;;14.45;4.05;;;16.30;99.90;;;;;;5043528;28;20052;-79
2021/07/16 04:14:13;;;;;;;13.82;4.25;;;16.30;99.90;;;;;;5026921;28;20049;-79
2021/07/16 04:16:41;;;;;;;10.43;4.68;;;16.30;99.90;;;;;;5026467;28;20071;-79
2021/07/16 04:19:07;;;;;;;14.55;4.75;;;16.30;99.90;;;;;;5020040;28;20496;-79
2021/07/16 04:21:33;;;;;;;12.95;3.72;;;16.30;99.90;;;;;;5024866;28;20048;-79
2021/07/16 04:24:00;;;;;;;18.88;4.57;;;16.20;99.90;;;;;;5044156;28;20484;-79
2021/07/16 04:26:26;;;;;;;13.82;4.28;;;16.30;99.90;;;;;;5043484;28;20040;-80
2021/07/16 04:28:52;;;;;;;13.70;4.50;;;16.20;99.90;;;;;;5027082;28;20041;-79
2021/07/16 04:31:19;;;;;;;12.75;3.95;;;16.30;99.90;;;;;;5009207;28;20052;-79
2021/07/16 04:33:45;;;;;;;11.05;4.47;;;16.30;99.90;;;;;;5043338;28;20036;-80
2021/07/16 04:36:14;;;;;;;15.43;4.13;;;16.30;99.90;;;;;;5025649;28;20033;-80
2021/07/16 04:38:40;;;;;;;13.00;3.92;;;16.40;99.90;;;;;;5043592;28;20392;-80
2021/07/16 04:41:06;;;;;;;13.90;4.10;;;16.40;99.90;;;;;;5042516;28;20033;-80
2021/07/16 04:43:33;;;;;;;13.75;3.50;;;16.40;99.90;;;;;;5044091;28;20045;-80
2021/07/16 04:45:59;;;;;;;16.85;3.83;;;16.40;99.90;;;;;;5020819;28;20144;-80
2021/07/16 04:48:26;;;;;;;19.05;3.83;;;16.50;99.90;;;;;;5042770;28;20029;-79
2021/07/16 04:50:52;;;;;;;11.40;3.20;;;16.50;99.90;;;;;;5024512;28;20048;-79
2021/07/16 04:53:18;;;;;;;15.05;3.25;;;16.50;99.90;;;;;;5042760;28;20508;-79
2021/07/16 04:55:45;;;;;;;13.90;3.58;;;16.50;99.90;;;;;;5044960;28;20040;-80
2021/07/16 04:58:11;;;;;;;18.88;3.63;;;16.60;99.90;;;;;;5043876;28;20069;-80
2021/07/16 05:00:38;;;;;;;12.45;2.70;;;16.60;99.90;;;;;;5043547;28;20052;-80
2021/07/16 05:03:04;;;;;;;17.92;3.65;;;16.60;99.90;;;;;;5024451;28;20411;-80
2021/07/16 05:05:30;;;;;;;14.50;3.63;;;16.60;99.90;;;;;;5045418;28;20044;-80
2021/07/16 05:07:57;;;;;;;14.40;3.40;;;16.60;99.90;;;;;;5045255;28;20041;-80
2021/07/16 05:10:23;;;;;;;12.35;3.30;;;16.60;99.90;;;;;;5046811;28;20475;-80
2021/07/16 05:12:50;;;;;;;11.43;3.00;;;16.60;99.90;;;;;;5025176;28;20053;-79
2021/07/16 05:15:16;;;;;;;11.90;3.55;;;16.60;99.90;;;;;;5046141;28;20479;-80
2021/07/16 05:17:43;;;;;;;16.20;3.83;;;16.70;99.90;;;;;;5045178;28;20041;-79
2021/07/16 05:20:09;;;;;;;15.35;3.03;;;16.70;99.90;;;;;;5011834;28;20048;-80
2021/07/16 05:22:36;;;;;;;16.08;3.70;;;16.70;99.90;;;;;;5043081;28;20064;-79
2021/07/16 05:25:04;;;;;;;16.42;3.53;;;16.70;99.90;;;;;;5043675;28;20045;-79
2021/07/16 05:27:31;;;;;;;13.60;2.95;;;16.70;99.90;;;;;;5046002;28;20024;-80
2021/07/16 05:29:57;;;;;;;14.70;4.03;;;16.70;99.90;;;;;;5052320;28;20051;-80
2021/07/16 05:32:24;;;;;;;13.90;3.30;;;16.80;99.90;;;;;;5049834;28;20040;-78
2021/07/16 05:34:50;;;;;;;13.35;3.03;;;16.80;99.90;;;;;;5051655;28;20464;-81
2021/07/16 05:37:17;;;;;;;11.43;3.30;;;16.80;99.90;;;;;;5029612;28;20508;-82
2021/07/16 05:39:46;;;;;;;11.27;2.83;;;16.80;99.90;;;;;;5011963;28;20053;-80
2021/07/16 05:42:12;;;;;;;16.77;2.92;;;16.90;99.90;;;;;;5046856;28;20036;-79
2021/07/16 05:44:39;;;;;;;14.43;3.10;;;17.00;99.90;;;;;;5046444;28;20381;-80
2021/07/16 05:47:06;;;;;;;16.05;3.25;;;17.10;99.90;;;;;;5048459;28;20595;-79
2021/07/16 05:49:32;;;;;;;16.52;3.08;;;17.20;99.90;;;;;;5030320;28;20036;-78
2021/07/16 05:51:59;;;;;;;12.00;2.90;;;17.30;99.90;;;;;;5044729;28;20033;-78
2021/07/16 05:54:25;;;;;;;11.98;2.67;;;17.40;99.90;;;;;;5047496;28;20048;-78
2021/07/16 05:56:51;;;;;;;15.77;3.95;;;17.50;99.90;;;;;;5046223;28;20033;-79
2021/07/16 05:59:20;;;;;;;14.77;2.83;;;17.70;99.90;;;;;;5030278;28;20061;-78
2021/07/16 06:01:46;;;;;;;16.50;3.08;;;17.80;99.90;;;;;;5010930;28;20036;-78
2021/07/16 06:04:13;;;;;;;14.50;3.13;;;17.90;99.90;;;;;;5049376;28;20037;-78
2021/07/16 06:06:39;;;;;;;16.50;3.40;;;18.00;99.90;;;;;;5047734;28;20044;-78
2021/07/16 06:09:06;;;;;;;14.30;2.88;;;18.00;99.90;;;;;;5051117;28;20025;-77
2021/07/16 06:11:33;;;;;;;16.58;3.58;;;18.10;99.90;;;;;;5045194;28;20408;-78
2021/07/16 06:13:59;;;;;;;14.90;2.92;;;18.20;99.90;;;;;;5026962;28;20037;-78
2021/07/16 06:16:26;;;;;;;13.27;2.75;;;18.20;99.90;;;;;;5048695;28;20048;-78
2021/07/16 06:18:52;;;;;;;14.18;2.58;;;18.20;99.90;;;;;;5030518;28;20041;-78
2021/07/16 06:21:18;;;;;;;11.93;2.63;;;18.10;99.90;;;;;;5042681;28;20057;-78
2021/07/16 06:23:46;;;;;;;17.35;2.72;;;18.10;99.90;;;;;;5032535;28;20041;-77
2021/07/16 06:26:12;;;;;;;15.35;2.50;;;18.10;99.90;;;;;;5047897;28;20585;-78
2021/07/16 06:28:39;;;;;;;15.15;2.88;;;18.00;99.90;;;;;;5047353;28;20029;-78
2021/07/16 06:31:05;;;;;;;17.23;3.80;;;18.00;99.90;;;;;;5045973;28;20025;-77
2021/07/16 06:33:32;;;;;;;14.30;3.10;;;17.90;99.90;;;;;;5046984;28;20037;-77
2021/07/16 06:35:58;;;;;;;14.82;6.55;;;17.90;99.90;;;;;;5044856;28;20041;-77
2021/07/16 06:38:24;;;;;;;15.30;3.63;;;17.90;99.90;;;;;;5031082;28;20036;-77
2021/07/16 06:40:51;;;;;;;14.38;2.78;;;17.90;99.90;;;;;;5047939;28;20044;-77
2021/07/16 06:43:17;;;;;;;12.60;2.33;;;17.90;99.90;;;;;;5048455;28;20395;-77
2021/07/16 06:45:44;;;;;;;10.65;2.08;;;17.90;99.90;;;;;;5043845;28;20396;-77
2021/07/16 06:48:10;;;;;;;17.33;2.85;;;18.00;99.90;;;;;;5026761;28;20041;-77
2021/07/16 06:50:37;;;;;;;12.88;2.40;;;18.10;99.90;;;;;;4994761;28;20050;-78
2021/07/16 06:53:03;;;;;;;16.02;2.50;;;18.20;99.90;;;;;;5009353;28;20056;-78
2021/07/16 06:55:30;;;;;;;16.08;2.70;;;18.20;99.90;;;;;;5022954;28;20050;-79
2021/07/16 06:57:59;;;;;;;11.43;2.63;;;18.40;99.90;;;;;;5044755;28;20045;-79
2021/07/16 07:00:26;;;;;;;19.23;2.72;;;18.40;99.90;;;;;;5045616;28;20040;-80
2021/07/16 07:02:53;;;;;;;12.70;2.28;;;18.40;99.90;;;;;;5044715;28;20032;-79
2021/07/16 07:05:25;;;;;;;13.57;1.90;;;18.40;99.90;;;;;;5025661;28;20504;-79
2021/07/16 07:07:53;;;;;;;17.92;3.15;;;18.50;99.90;;;;;;5044860;28;20048;-79
2021/07/16 07:10:20;;;;;;;12.30;2.33;;;18.50;99.90;;;;;;5043192;28;20051;-79
2021/07/16 07:12:46;;;;;;;11.55;2.35;;;18.50;99.90;;;;;;5025476;28;20071;-78
2021/07/16 07:15:13;;;;;;;17.33;3.47;;;18.50;99.90;;;;;;5043579;28;20451;-79
2021/07/16 07:17:41;;;;;;;16.33;2.58;;;18.50;99.90;;;;;;5044401;28;20041;-79
2021/07/16 07:20:09;;;;;;;18.13;3.60;;;18.50;99.90;;;;;;5043046;28;20049;-80
2021/07/16 07:22:36;;;;;;;20.90;4.28;;;18.40;99.90;;;;;;5024990;28;20412;-81
2021/07/16 07:25:03;;;;;;;24.98;4.38;;;18.40;99.90;;;;;;5045136;28;20033;-79
2021/07/16 07:27:31;;;;;;;20.77;3.70;;;18.40;99.90;;;;;;5025418;28;20036;-79
2021/07/16 07:29:57;;;;;;;21.35;3.72;;;18.30;99.90;;;;;;5026910;28;20036;-80
2021/07/16 07:32:23;;;;;;;15.05;3.03;;;18.40;99.90;;;;;;5025272;28;20044;-79
2021/07/16 07:34:50;;;;;;;16.63;2.83;;;18.40;99.90;;;;;;5009031;28;20049;-79
2021/07/16 07:37:16;;;;;;;19.95;3.60;;;18.50;99.90;;;;;;5042728;28;20037;-79
2021/07/16 07:39:43;;;;;;;24.80;3.42;;;18.50;99.90;;;;;;5009943;28;20041;-79
2021/07/16 07:42:15;;;;;;;19.50;2.65;;;18.50;99.90;;;;;;4992628;28;20045;-79
2021/07/16 07:44:42;;;;;;;17.63;3.63;;;18.50;99.90;;;;;;5009411;28;20140;-79
2021/07/16 07:47:08;;;;;;;21.60;4.40;;;18.50;99.90;;;;;;5042376;28;20037;-79
2021/07/16 07:49:35;;;;;;;13.93;2.45;;;18.50;99.90;;;;;;5009947;28;20476;-77
2021/07/16 07:52:04;;;;;;;14.80;2.50;;;18.50;99.90;;;;;;5024864;28;20043;-77
2021/07/16 07:54:30;;;;;;;17.90;3.05;;;18.50;99.90;;;;;;5041155;28;20029;-77
2021/07/16 07:56:56;;;;;;;18.02;2.65;;;18.50;99.90;;;;;;5041650;28;20025;-77
2021/07/16 07:59:25;;;;;;;11.98;1.98;;;18.60;99.90;;;;;;5024943;28;20051;-77
2021/07/16 08:01:51;;;;;;;17.88;3.28;;;18.60;99.90;;;;;;5041602;28;20047;-79
2021/07/16 08:04:18;;;;;;;17.83;3.05;;;18.60;99.90;;;;;;5046240;28;20033;-80
2021/07/16 08:06:44;;;;;;;16.63;3.20;;;18.60;99.90;;;;;;5050548;28;20041;-79
2021/07/16 08:09:11;;;;;;;14.82;3.28;;;18.60;99.90;;;;;;5013571;28;20045;-79
2021/07/16 08:11:37;;;;;;;15.15;2.67;;;18.70;99.90;;;;;;5039725;28;20029;-79
2021/07/16 08:14:04;;;;;;;17.33;3.25;;;18.70;99.90;;;;;;5005185;28;20041;-78
2021/07/16 08:16:30;;;;;;;15.82;3.20;;;18.70;99.90;;;;;;5043991;28;20037;-80
2021/07/16 08:18:57;;;;;;;17.15;2.88;;;18.90;99.90;;;;;;5042020;28;20048;-78
2021/07/16 08:21:23;;;;;;;19.65;3.40;;;19.00;99.90;;;;;;5039106;28;20076;-79
2021/07/16 08:23:50;;;;;;;19.23;2.85;;;19.20;99.90;;;;;;5024701;28;20057;-80
2021/07/16 08:26:19;;;;;;;17.70;3.78;;;19.30;99.90;;;;;;5000868;28;20042;-80
2021/07/16 08:28:46;;;;;;;18.10;2.95;;;19.40;99.90;;;;;;5025914;28;20064;-79
2021/07/16 08:31:12;;;;;;;13.70;2.72;;;19.60;99.90;;;;;;5042105;28;20032;-79
2021/07/16 08:33:38;;;;;;;13.27;3.03;;;19.80;99.90;;;;;;5041553;28;20040;-79
2021/07/16 08:36:05;;;;;;;15.38;3.15;;;20.10;99.90;;;;;;5010104;28;20045;-79
2021/07/16 08:38:31;;;;;;;13.38;3.78;;;20.60;99.90;;;;;;5045247;28;20029;-79
2021/07/16 08:40:58;;;;;;;13.20;3.10;;;21.00;99.90;;;;;;5028636;28;20053;-80
2021/07/16 08:43:27;;;;;;;9.35;2.10;;;21.30;99.90;;;;;;5029133;28;20037;-80
2021/07/16 08:45:53;;;;;;;10.82;2.65;;;21.50;99.90;;;;;;5030544;28;20045;-81
2021/07/16 08:48:20;;;;;;;13.02;2.65;;;21.50;99.90;;;;;;5030552;28;20087;-81
2021/07/16 08:50:47;;;;;;;14.57;2.70;;;21.60;99.90;;;;;;5047659;28;20387;-81
2021/07/16 08:53:14;;;;;;;15.40;3.58;;;21.50;99.90;;;;;;5019227;28;20710;-81
2021/07/16 08:55:42;;;;;;;16.23;2.63;;;21.50;99.90;;;;;;5013340;28;20412;-81
2021/07/16 08:58:10;;;;;;;13.80;2.42;;;21.40;99.90;;;;;;5014755;28;20044;-82
2021/07/16 09:00:37;;;;;;;14.40;3.40;;;21.50;99.90;;;;;;5047866;28;20045;-82
2021/07/16 09:03:10;;;;;;;17.77;2.88;;;21.50;99.90;;;;;;5046112;28;20922;-80
2021/07/16 09:05:39;;;;;;;14.45;3.15;;;21.60;99.90;;;;;;5047316;28;20715;-81
2021/07/16 09:08:18;;;;;;;17.13;3.05;;;21.70;99.90;;;;;;5013343;28;20041;-81
2021/07/16 09:10:51;;;;;;;13.57;3.13;;;21.80;99.90;;;;;;5028218;28;20488;-81
2021/07/16 09:13:18;;;;;;;15.65;3.38;;;21.90;99.90;;;;;;5041532;28;20044;-81
2021/07/16 09:15:49;;;;;;;21.38;3.58;;;22.00;99.90;;;;;;5028654;28;20071;-82
2021/07/16 09:18:21;;;;;;;12.25;3.10;;;21.90;99.90;;;;;;5011834;28;20503;-82
2021/07/16 09:20:50;;;;;;;15.65;2.92;;;21.70;99.60;;;;;;5045967;28;20061;-81
2021/07/16 09:23:19;;;;;;;14.70;2.97;;;21.40;99.90;;;;;;5043932;28;20045;-79
2021/07/16 09:26:08;;;;;;;14.18;2.70;;;21.20;99.90;;;;;;5045253;28;20040;-79
2021/07/16 09:28:36;;;;;;;12.93;2.78;;;21.10;99.90;;;;;;5010343;28;20040;-79
2021/07/16 09:31:11;;;;;;;17.75;3.05;;;21.10;99.90;;;;;;5011821;28;20503;-79
2021/07/16 09:33:45;;;;;;;16.80;3.20;;;20.90;99.90;;;;;;5045005;28;20037;-79
2021/07/16 09:36:25;;;;;;;13.10;2.80;;;20.80;99.90;;;;;;5028470;28;20047;-82
2021/07/16 09:39:16;;;;;;;18.23;3.78;;;20.60;99.90;;;;;;5044932;28;20033;-81
2021/07/16 09:41:51;;;;;;;11.93;2.92;;;20.60;99.90;;;;;;5042608;28;20075;-81
2021/07/16 09:44:40;;;;;;;17.50;3.38;;;20.60;99.90;;;;;;4992287;28;20049;-82
2021/07/16 09:47:17;;;;;;;12.35;2.63;;;20.50;99.90;;;;;;5044675;28;20048;-82
2021/07/16 09:50:10;;;;;;;14.95;3.03;;;20.40;99.90;;;;;;5028290;28;20392;-81
2021/07/16 09:52:37;;;;;;;13.63;3.17;;;20.30;99.90;;;;;;5026319;28;20481;-81
2021/07/16 09:55:11;;;;;;;14.25;3.20;;;20.20;99.90;;;;;;5026103;28;20041;-82
2021/07/16 09:57:38;;;;;;;16.23;3.05;;;20.10;99.90;;;;;;5026643;28;20034;-82
2021/07/16 10:00:16;;;;;;;9.55;2.28;;;20.10;99.90;;;;;;5010494;28;20512;-82
2021/07/16 10:02:47;;;;;;;11.32;2.13;;;20.00;99.90;;;;;;5042485;28;20048;-82
2021/07/16 10:05:14;;;;;;;15.30;2.92;;;20.00;99.90;;;;;;5027492;28;20495;-82
2021/07/16 10:07:42;;;;;;;12.27;2.33;;;20.00;99.90;;;;;;5044174;28;20045;-82
2021/07/16 10:10:13;;;;;;;14.52;2.72;;;20.00;99.90;;;;;;5026101;28;20072;-81
2021/07/16 10:12:42;;;;;;;9.48;2.22;;;20.10;99.90;;;;;;5026700;28;20522;-83
2021/07/16 10:15:12;;;;;;;12.48;2.45;;;20.20;99.90;;;;;;5052797;28;20044;-83
2021/07/16 10:17:41;;;;;;;10.25;2.58;;;20.30;99.90;;;;;;5028215;28;20391;-83
2021/07/16 10:20:17;;;;;;;13.30;2.83;;;20.30;99.90;;;;;;5011969;28;20408;-86
2021/07/16 10:22:45;;;;;;;11.90;3.00;;;20.20;99.90;;;;;;5026517;28;20061;-84
2021/07/16 10:25:19;;;;;;;19.25;3.67;;;20.20;99.90;;;;;;5010522;28;20534;-82
2021/07/16 10:27:48;;;;;;;17.02;3.17;;;20.10;99.90;;;;;;5044883;28;20025;-85
2021/07/16 10:30:17;;;;;;;19.00;3.60;;;19.90;99.90;;;;;;4995743;28;20049;-87
2021/07/16 10:32:49;;;;;;;19.58;3.40;;;19.60;99.90;;;;;;5010260;28;20052;-84
2021/07/16 10:35:24;;;;;;;17.70;3.67;;;19.40;99.90;;;;;;5050312;28;20052;-81
2021/07/16 10:37:54;;;;;;;16.88;3.72;;;19.20;99.90;;;;;;5043091;28;20037;-85
2021/07/16 10:40:36;;;;;;;15.93;2.65;;;19.10;99.90;;;;;;5048337;28;20033;-82
2021/07/16 10:43:04;;;;;;;14.38;3.10;;;19.10;99.90;;;;;;5005569;28;20057;-83
2021/07/16 10:45:31;;;;;;;21.70;3.40;;;19.10;99.90;;;;;;5046526;28;20041;-80
2021/07/16 10:48:16;;;;;;;18.88;4.13;;;19.30;99.90;;;;;;5027349;28;20413;-79
2021/07/16 10:50:44;;;;;;;17.42;4.05;;;19.50;99.90;;;;;;5028868;28;20045;-79
2021/07/16 10:53:27;;;;;;;20.02;4.88;;;19.70;99.90;;;;;;5044323;28;20052;-79
2021/07/16 10:55:56;;;;;;;19.45;4.85;;;19.80;99.90;;;;;;5047329;28;20041;-79
2021/07/16 10:58:30;;;;;;;23.17;4.25;;;19.90;99.90;;;;;;5042039;28;20032;-79
2021/07/16 11:00:59;;;;;;;17.40;3.80;;;20.10;99.90;;;;;;5039563;28;20048;-80
2021/07/16 11:03:42;;;;;;;20.75;3.60;;;20.10;99.90;;;;;;5040784;28;20139;-80
2021/07/16 11:06:10;;;;;;;19.77;3.75;;;20.10;99.90;;;;;;5024201;28;20032;-80
2021/07/16 11:08:40;;;;;;;15.55;3.50;;;20.10;99.90;;;;;;5044501;28;20037;-80
2021/07/16 11:11:10;;;;;;;19.08;3.60;;;20.00;99.90;;;;;;5027609;28;20044;-80
2021/07/16 11:13:54;;;;;;;15.73;3.53;;;19.90;99.90;;;;;;5026962;28;20060;-80
2021/07/16 11:16:31;;;;;;;19.30;3.50;;;19.90;99.90;;;;;;5043990;28;20043;-79
2021/07/16 11:19:09;;;;;;;17.98;3.08;;;19.80;99.90;;;;;;5024636;28;20033;-79
2021/07/16 11:21:39;;;;;;;16.65;3.70;;;19.90;99.90;;;;;;5039521;28;20045;-80
2021/07/16 11:24:15;;;;;;;17.92;4.20;;;20.00;99.90;;;;;;5040484;28;20052;-79
2021/07/16 11:27:08;;;;;;;19.98;6.30;;;20.10;99.90;;;;;;5044279;28;20033;-78
2021/07/16 11:29:36;;;;;;;17.20;4.85;;;20.30;99.90;;;;;;5041415;28;20044;-79
2021/07/16 11:32:13;;;;;;;18.27;4.38;;;20.50;99.90;;;;;;5041489;28;20404;-78
2021/07/16 11:34:59;;;;;;;17.73;3.80;;;20.60;99.90;;;;;;5044549;28;20392;-77
2021/07/16 11:37:28;;;;;;;15.75;3.40;;;20.60;99.90;;;;;;5047488;28;20797;-80
2021/07/16 11:40:03;;;;;;;16.40;3.15;;;20.60;99.90;;;;;;5047712;28;20033;-79
2021/07/16 11:42:32;;;;;;;20.02;3.50;;;20.60;99.90;;;;;;5024384;28;20067;-79
2021/07/16 11:44:58;;;;;;;16.02;3.65;;;20.50;99.90;;;;;;5042329;28;20087;-79
2021/07/16 11:47:27;;;;;;;17.77;3.63;;;20.50;99.90;;;;;;5041368;28;20092;-79
2021/07/16 11:49:58;;;;;;;13.77;3.13;;;20.60;99.90;;;;;;5043019;28;20049;-78
2021/07/16 11:52:28;;;;;;;15.63;3.20;;;20.70;99.90;;;;;;5041598;28;20029;-79
2021/07/16 11:55:14;;;;;;;16.45;3.28;;;20.90;99.90;;;;;;5026834;28;20061;-79
2021/07/16 11:57:56;;;;;;;17.05;3.10;;;21.10;99.90;;;;;;5041701;28;20045;-79
2021/07/16 12:00:35;;;;;;;18.05;3.65;;;21.40;99.90;;;;;;5046089;28;20048;-78
2021/07/16 12:03:06;;;;;;;16.75;2.92;;;21.50;99.90;;;;;;5041018;28;20618;-78
2021/07/16 12:05:46;;;;;;;18.48;2.80;;;21.80;99.90;;;;;;5044664;28;20837;-77
2021/07/16 12:08:20;;;;;;;15.95;3.20;;;22.00;99.90;;;;;;5062691;28;20625;-79
2021/07/16 12:10:47;;;;;;;17.13;3.58;;;22.10;99.90;;;;;;5026250;28;20041;-78
2021/07/16 12:13:18;;;;;;;16.33;3.50;;;22.20;99.90;;;;;;5027120;28;20642;-78
2021/07/16 12:15:57;;;;;;;15.43;3.10;;;22.30;99.90;;;;;;5043402;28;20036;-77
2021/07/16 12:18:24;;;;;;;17.80;3.90;;;22.30;99.90;;;;;;5041726;28;20037;-78
2021/07/16 12:20:54;;;;;;;21.30;3.72;;;22.30;99.90;;;;;;5040907;28;20049;-78
2021/07/16 12:23:22;;;;;;;18.17;3.67;;;22.30;99.90;;;;;;5040164;28;20437;-78
2021/07/16 12:26:12;;;;;;;20.33;3.35;;;22.30;99.90;;;;;;5043608;28;20048;-78
2021/07/16 12:28:38;;;;;;;19.10;3.85;;;22.30;99.90;;;;;;5039163;28;20045;-78
2021/07/16 12:31:05;;;;;;;18.20;3.38;;;22.40;99.90;;;;;;5036903;28;20036;-78
2021/07/16 12:33:33;;;;;;;15.68;3.45;;;22.50;99.90;;;;;;5020725;28;20045;-78
2021/07/16 12:35:59;;;;;;;11.27;3.25;;;22.50;99.90;;;;;;5042105;28;20045;-78
2021/07/16 12:38:34;;;;;;;10.40;2.75;;;22.40;99.90;;;;;;5043905;28;20140;-79
2021/07/16 12:41:09;;;;;;;14.52;3.33;;;22.40;99.90;;;;;;5040988;28;20423;-79
2021/07/16 12:43:45;;;;;;;13.68;2.92;;;22.30;99.90;;;;;;5042897;28;20033;-78
2021/07/16 12:46:11;;;;;;;13.68;3.38;;;22.30;99.90;;;;;;5025178;28;20048;-79
2021/07/16 12:48:39;;;;;;;12.40;3.28;;;22.30;99.90;;;;;;5042486;28;20041;-79